createdAt,value
2023-04-10T00:00:10.015Z,1.9
2023-04-10T00:03:11.972Z,1.9
2023-04-10T00:06:09.994Z,1.9
2023-04-10T00:09:09.913Z,1.8
2023-04-10T00:12:09.904Z,1.9
2023-04-10T00:15:10.012Z,2.1
2023-04-10T00:18:10.186Z,2
2023-04-10T00:21:09.956Z,2
2023-04-10T00:24:09.931Z,2
2023-04-10T00:27:09.900Z,2.1
2023-04-10T00:30:09.894Z,2.2
2023-04-10T00:33:10.340Z,2.2
2023-04-10T00:36:10.231Z,2.2
2023-04-10T00:39:09.898Z,2.3
2023-04-10T00:42:10.092Z,2.4
2023-04-10T00:45:09.870Z,2.4
2023-04-10T00:48:10.014Z,2.4
2023-04-10T00:51:09.882Z,2.2
2023-04-10T00:54:09.878Z,2.1
2023-04-10T00:57:09.919Z,2
2023-04-10T01:00:09.911Z,2
2023-04-10T01:03:11.106Z,1.9
2023-04-10T01:06:09.879Z,1.8
2023-04-10T01:09:09.836Z,1.7
2023-04-10T01:12:09.929Z,1.6
2023-04-10T01:15:09.895Z,1.6
2023-04-10T01:18:10.314Z,1.7
2023-04-10T01:21:09.846Z,1.7
2023-04-10T01:24:09.992Z,1.8
2023-04-10T01:27:09.923Z,1.6
2023-04-10T01:30:09.969Z,1.6
2023-04-10T01:33:10.150Z,1.4
2023-04-10T01:36:10.255Z,1.6
2023-04-10T01:39:09.893Z,1.7
2023-04-10T01:42:09.926Z,1.7
2023-04-10T01:45:09.950Z,1.7
2023-04-10T01:48:10.309Z,1.6
2023-04-10T01:51:09.911Z,1.5
2023-04-10T01:54:12.903Z,1.3
2023-04-10T01:57:09.956Z,1.2
2023-04-10T02:00:10.167Z,1.3
2023-04-10T02:03:11.400Z,1.4
2023-04-10T02:06:09.807Z,1.5
2023-04-10T02:09:09.927Z,1.6
2023-04-10T02:12:09.844Z,1.6
2023-04-10T02:15:09.982Z,1.6
2023-04-10T02:18:10.262Z,1.8
2023-04-10T02:21:10.010Z,1.7
2023-04-10T02:24:10.171Z,1.6
2023-04-10T02:27:09.886Z,1.4
2023-04-10T02:30:09.899Z,1.4
2023-04-10T02:33:10.289Z,1.3
2023-04-10T02:36:10.171Z,1.3
2023-04-10T02:39:09.954Z,1.2
2023-04-10T02:42:09.942Z,1.2
2023-04-10T02:45:09.907Z,1.2
2023-04-10T02:48:10.170Z,1.4
2023-04-10T02:51:09.865Z,1.3
2023-04-10T02:54:09.856Z,1.4
2023-04-10T02:57:09.845Z,1.4
2023-04-10T03:00:09.953Z,1.4
2023-04-10T03:03:10.782Z,1.4
2023-04-10T03:06:12.311Z,1.3
2023-04-10T03:09:09.996Z,1.2
2023-04-10T03:12:10.097Z,1.2
2023-04-10T03:15:09.869Z,1.1
2023-04-10T03:18:10.206Z,1.1
2023-04-10T03:21:09.818Z,1.1
2023-04-10T03:24:09.975Z,1
2023-04-10T03:27:09.886Z,0.9
2023-04-10T03:30:09.962Z,1
2023-04-10T03:33:09.841Z,0.9
2023-04-10T03:36:10.366Z,0.9
2023-04-10T03:39:09.900Z,0.9
2023-04-10T03:42:09.839Z,0.9
2023-04-10T03:45:09.884Z,0.9
2023-04-10T03:48:10.239Z,1.1
2023-04-10T03:51:09.956Z,1.2
2023-04-10T03:54:09.979Z,1.4
2023-04-10T03:57:09.886Z,1.6
2023-04-10T04:00:09.954Z,1.9
2023-04-10T04:03:11.462Z,2
2023-04-10T04:06:09.939Z,1.8
2023-04-10T04:09:09.910Z,1.7
2023-04-10T04:12:09.850Z,1.7
2023-04-10T04:15:09.919Z,1.7
2023-04-10T04:18:10.106Z,1.8
2023-04-10T04:21:09.838Z,1.9
2023-04-10T04:24:09.881Z,2
2023-04-10T04:27:09.919Z,2
2023-04-10T04:30:09.883Z,1.9
2023-04-10T04:33:10.213Z,1.9
2023-04-10T04:36:10.176Z,1.9
2023-04-10T04:39:10.012Z,2
2023-04-10T04:42:10.016Z,2.1
2023-04-10T04:45:10.340Z,2.2
2023-04-10T04:48:10.164Z,2.3
2023-04-10T04:51:09.969Z,2.3
2023-04-10T04:54:09.945Z,2.4
2023-04-10T04:57:09.983Z,2.3
2023-04-10T05:00:10.110Z,2.3
2023-04-10T05:03:11.155Z,2.2
2023-04-10T05:06:09.967Z,2.3
2023-04-10T05:09:10.074Z,2.4
2023-04-10T05:12:10.004Z,2.6
2023-04-10T05:15:10.077Z,2.8
2023-04-10T05:18:10.691Z,3
2023-04-10T05:21:10.096Z,3.4
2023-04-10T05:24:10.015Z,4.2
2023-04-10T05:27:10.074Z,4.9
2023-04-10T05:30:10.081Z,5.3
2023-04-10T05:33:10.120Z,6.1
2023-04-10T05:36:10.392Z,6.6
2023-04-10T05:39:09.982Z,6.9
2023-04-10T05:42:10.127Z,7.5
2023-04-10T05:45:09.905Z,7.8
2023-04-10T05:48:10.110Z,8.3
2023-04-10T05:51:09.906Z,8.4
2023-04-10T05:54:09.993Z,8.2
2023-04-10T05:57:09.915Z,8.3
2023-04-10T06:00:10.128Z,8.7
2023-04-10T06:03:10.536Z,8.7
2023-04-10T06:06:09.985Z,8.7
2023-04-10T06:09:10.031Z,8.9
2023-04-10T06:12:10.111Z,8.8
2023-04-10T06:15:09.854Z,9.3
2023-04-10T06:18:10.102Z,9.8
2023-04-10T06:21:09.909Z,10.3
2023-04-10T06:24:11.651Z,10.9
2023-04-10T06:27:09.986Z,11.2
2023-04-10T06:30:10.288Z,11.1
2023-04-10T06:33:10.352Z,11.5
2023-04-10T06:36:10.443Z,11.7
2023-04-10T06:39:10.191Z,11.3
2023-04-10T06:42:10.179Z,12.2
2023-04-10T06:45:10.145Z,12.3
2023-04-10T06:48:10.260Z,12.6
2023-04-10T06:51:09.994Z,12.6
2023-04-10T06:54:10.045Z,12.6
2023-04-10T06:57:09.976Z,12.8
2023-04-10T07:00:10.586Z,12.4
2023-04-10T07:03:10.359Z,13
2023-04-10T07:06:10.214Z,12.9
2023-04-10T07:09:10.132Z,13
2023-04-10T07:12:09.943Z,13.1
2023-04-10T07:15:10.035Z,12.9
2023-04-10T07:18:10.525Z,12.9
2023-04-10T07:21:09.938Z,12.8
2023-04-10T07:24:09.994Z,12.9
2023-04-10T07:27:10.080Z,13
2023-04-10T07:30:11.216Z,13.7
2023-04-10T07:33:11.699Z,14.3
2023-04-10T07:36:10.366Z,14.3
2023-04-10T07:39:10.022Z,15.3
2023-04-10T07:42:10.078Z,14.9
2023-04-10T07:45:10.022Z,14.6
2023-04-10T07:48:10.310Z,14.9
2023-04-10T07:51:10.020Z,15.3
2023-04-10T07:54:09.979Z,16
2023-04-10T07:57:09.910Z,15.9
2023-04-10T08:00:10.258Z,15.6
2023-04-10T08:03:11.948Z,15
2023-04-10T08:06:09.964Z,14.6
2023-04-10T08:09:09.950Z,14.4
2023-04-10T08:12:09.873Z,14.4
2023-04-10T08:15:10.058Z,14.9
2023-04-10T08:18:10.311Z,15.2
2023-04-10T08:21:09.955Z,15.4
2023-04-10T08:24:10.040Z,15.5
2023-04-10T08:27:10.023Z,15.5
2023-04-10T08:30:10.389Z,15.6
2023-04-10T08:33:10.106Z,16.6
2023-04-10T08:36:10.038Z,16.8
2023-04-10T08:39:10.229Z,16.8
2023-04-10T08:42:10.050Z,16.7
2023-04-10T08:45:09.934Z,16.9
2023-04-10T08:48:10.253Z,17.2
2023-04-10T08:51:20.709Z,17.3
2023-04-10T08:54:09.965Z,17.6
2023-04-10T08:57:12.067Z,17.7
2023-04-10T09:00:30.319Z,17.6
2023-04-10T09:03:10.739Z,17.7
2023-04-10T09:06:09.978Z,18.1
2023-04-10T09:12:10.644Z,18.9
2023-04-10T09:15:10.031Z,18.8
2023-04-10T09:18:10.655Z,18.8
2023-04-10T09:21:09.964Z,18.9
2023-04-10T09:24:10.124Z,19.3
2023-04-10T09:27:10.043Z,19.6
2023-04-10T09:30:10.119Z,19.3
2023-04-10T09:33:12.650Z,19
2023-04-10T09:36:10.333Z,19.2
2023-04-10T09:39:10.080Z,18.8
2023-04-10T09:42:10.001Z,19.1
2023-04-10T09:45:10.109Z,19.3
2023-04-10T09:48:10.538Z,19.8
2023-04-10T09:51:09.967Z,19.9
2023-04-10T09:57:09.641Z,19.6
2023-04-10T10:00:09.661Z,19.6
2023-04-10T10:03:11.352Z,19.9
2023-04-10T10:06:09.598Z,20.1
2023-04-10T10:09:09.687Z,20.4
2023-04-10T10:12:09.568Z,19.9
2023-04-10T10:15:09.714Z,20
2023-04-10T10:18:09.903Z,20.4
2023-04-10T10:21:09.557Z,20.8
2023-04-10T10:24:09.509Z,20.1
2023-04-10T10:27:09.485Z,19.8
2023-04-10T10:30:36.117Z,19.9
2023-04-10T10:33:09.845Z,19.9
2023-04-10T10:36:09.572Z,19.5
2023-04-10T10:39:09.795Z,19.4
2023-04-10T10:42:09.604Z,19.2
2023-04-10T10:45:09.607Z,19.3
2023-04-10T10:48:10.057Z,19
2023-04-10T10:51:09.614Z,18.9
2023-04-10T10:54:09.579Z,18.4
2023-04-10T10:57:09.701Z,18.8
2023-04-10T11:00:09.698Z,19
2023-04-10T11:03:10.936Z,19.1
2023-04-10T11:06:09.629Z,19.6
2023-04-10T11:09:09.738Z,20.1
2023-04-10T11:12:09.591Z,19.9
2023-04-10T11:15:09.671Z,19.5
2023-04-10T11:18:09.615Z,19.4
2023-04-10T11:21:09.567Z,19.3
2023-04-10T11:24:09.598Z,19.6
2023-04-10T11:27:09.562Z,19.4
2023-04-10T11:30:09.544Z,19.4
2023-04-10T11:33:10.050Z,19.5
2023-04-10T11:36:09.806Z,19.9
2023-04-10T11:39:09.651Z,19.7
2023-04-10T11:42:09.478Z,19.9
2023-04-10T11:45:09.469Z,19.5
2023-04-10T11:48:09.891Z,19.4
2023-04-10T11:51:09.626Z,19.4
2023-04-10T11:54:09.591Z,19.9
2023-04-10T11:57:09.600Z,20.2
2023-04-10T12:00:09.703Z,19.8
2023-04-10T12:03:10.496Z,19.7
2023-04-10T12:06:09.728Z,19.7
2023-04-10T12:09:09.612Z,19.1
2023-04-10T12:12:09.758Z,19.3
2023-04-10T12:15:09.707Z,19.4
2023-04-10T12:18:10.010Z,19.5
2023-04-10T12:21:11.282Z,20.1
2023-04-10T12:24:09.592Z,20.3
2023-04-10T12:27:10.485Z,20.2
2023-04-10T12:30:09.577Z,20.2
2023-04-10T12:33:10.047Z,20
2023-04-10T12:36:09.735Z,19.9
2023-04-10T12:39:09.575Z,20.3
2023-04-10T12:42:09.589Z,20
2023-04-10T12:45:09.682Z,19.7
2023-04-10T12:48:09.988Z,19.6
2023-04-10T12:51:09.653Z,19.1
2023-04-10T12:54:09.716Z,19.1
2023-04-10T12:57:09.606Z,18.8
2023-04-10T13:00:09.670Z,18.9
2023-04-10T13:03:10.898Z,18.9
2023-04-10T13:06:09.476Z,19.1
2023-04-10T13:09:09.577Z,18.9
2023-04-10T13:12:09.477Z,19.1
2023-04-10T13:15:10.166Z,19.1
2023-04-10T13:18:13.004Z,19.8
2023-04-10T13:21:09.505Z,19.7
2023-04-10T13:24:09.603Z,19.4
2023-04-10T13:27:09.531Z,19
2023-04-10T13:30:09.505Z,18.5
2023-04-10T13:33:10.044Z,18.2
2023-04-10T13:36:10.024Z,17.9
2023-04-10T13:39:09.575Z,17.7
2023-04-10T13:42:09.552Z,17.7
2023-04-10T13:45:09.536Z,17.8
2023-04-10T13:48:09.902Z,17.8
2023-04-10T13:51:09.540Z,17.8
2023-04-10T13:54:09.436Z,17.8
2023-04-10T13:57:09.594Z,18.1
2023-04-10T14:00:09.666Z,18.3
2023-04-10T14:03:10.697Z,18.4
2023-04-10T14:06:09.582Z,18.4
2023-04-10T14:09:09.557Z,18.3
2023-04-10T14:12:09.586Z,18.3
2023-04-10T14:15:09.704Z,18.2
2023-04-10T14:18:09.729Z,17.9
2023-04-10T14:21:09.634Z,17.9
2023-04-10T14:24:09.598Z,18
2023-04-10T14:27:10.524Z,18
2023-04-10T14:30:09.574Z,18
2023-04-10T14:33:10.056Z,18.1
2023-04-10T14:36:10.042Z,18.1
2023-04-10T14:39:09.571Z,18.3
2023-04-10T14:42:09.523Z,18.4
2023-04-10T14:45:09.515Z,18.4
2023-04-10T14:48:10.063Z,18.5
2023-04-10T14:51:09.560Z,18.2
2023-04-10T14:54:09.635Z,18.1
2023-04-10T14:57:09.581Z,18.2
2023-04-10T15:00:09.699Z,18.3
2023-04-10T15:03:10.197Z,18.3
2023-04-10T15:06:09.497Z,18.1
2023-04-10T15:09:09.503Z,17.8
2023-04-10T15:12:09.579Z,17.6
2023-04-10T15:15:09.565Z,17.6
2023-04-10T15:18:10.067Z,17.6
2023-04-10T15:21:09.561Z,17.4
2023-04-10T15:24:09.545Z,17.5
2023-04-10T15:27:09.559Z,17.5
2023-04-10T15:30:09.557Z,17.5
2023-04-10T15:33:09.867Z,17.4
2023-04-10T15:36:10.101Z,17.4
2023-04-10T15:39:09.538Z,17.2
2023-04-10T15:42:09.537Z,17.1
2023-04-10T15:45:09.643Z,17
2023-04-10T15:48:09.817Z,16.9
2023-04-10T15:51:09.544Z,16.9
2023-04-10T15:54:09.569Z,16.8
2023-04-10T15:57:09.623Z,16.9
2023-04-10T16:00:09.733Z,16.9
2023-04-10T16:03:11.156Z,16.9
2023-04-10T16:06:09.653Z,16.9
2023-04-10T16:09:29.249Z,17
2023-04-10T16:12:09.487Z,17.1
2023-04-10T16:15:09.570Z,17.1
2023-04-10T16:18:09.839Z,17.1
2023-04-10T16:21:09.791Z,17.2
2023-04-10T16:24:09.563Z,17.2
2023-04-10T16:27:09.501Z,17.3
2023-04-10T16:30:09.593Z,17.3
2023-04-10T16:33:09.837Z,17.3
2023-04-10T16:36:09.785Z,17.2
2023-04-10T16:39:09.589Z,17
2023-04-10T16:42:09.474Z,16.7
2023-04-10T16:45:09.518Z,16.5
2023-04-10T16:48:09.873Z,16.3
2023-04-10T16:51:09.579Z,16.1
2023-04-10T16:54:09.572Z,15.9
2023-04-10T16:57:09.487Z,15.8
2023-04-10T17:00:10.242Z,15.8
2023-04-10T17:03:09.949Z,15.7
2023-04-10T17:06:09.482Z,15.6
2023-04-10T17:09:09.552Z,15.4
2023-04-10T17:12:09.762Z,15.3
2023-04-10T17:15:09.501Z,15.1
2023-04-10T17:18:09.714Z,14.9
2023-04-10T17:21:09.567Z,14.8
2023-04-10T17:24:09.748Z,14.6
2023-04-10T17:27:09.472Z,14.4
2023-04-10T17:30:09.722Z,14.3
2023-04-10T17:33:10.062Z,14.2
2023-04-10T17:36:10.017Z,14.1
2023-04-10T17:39:09.868Z,14.1
2023-04-10T17:42:09.582Z,14.1
2023-04-10T17:45:09.559Z,14
2023-04-10T17:48:10.358Z,13.9
2023-04-10T17:51:09.499Z,13.8
2023-04-10T17:54:09.596Z,13.7
2023-04-10T17:57:09.607Z,13.6
2023-04-10T18:00:09.544Z,13.4
2023-04-10T18:03:10.140Z,13.3
2023-04-10T18:06:09.485Z,13.3
2023-04-10T18:09:09.463Z,13.2
2023-04-10T18:12:09.526Z,13.1
2023-04-10T18:15:09.533Z,12.9
2023-04-10T18:18:09.731Z,12.8
2023-04-10T18:21:09.490Z,12.7
2023-04-10T18:24:09.472Z,12.6
2023-04-10T18:27:09.403Z,12.4
2023-04-10T18:30:09.599Z,12.4
2023-04-10T18:33:17.292Z,12.3
2023-04-10T18:36:09.762Z,12.3
2023-04-10T18:39:09.501Z,12.2
2023-04-10T18:42:09.510Z,12.2
2023-04-10T18:45:09.487Z,12.2
2023-04-10T18:48:09.627Z,12.2
2023-04-10T18:51:09.463Z,12.1
2023-04-10T18:54:09.496Z,12.1
2023-04-10T18:57:09.471Z,12
2023-04-10T19:00:09.590Z,11.9
2023-04-10T19:03:10.804Z,11.8
2023-04-10T19:06:09.467Z,11.7
2023-04-10T19:09:09.482Z,11.6
2023-04-10T19:12:09.536Z,11.5
2023-04-10T19:15:09.528Z,11.4
2023-04-10T19:18:09.708Z,11.5
2023-04-10T19:21:09.491Z,11.6
2023-04-10T19:24:09.494Z,11.5
2023-04-10T19:27:09.584Z,11.6
2023-04-10T19:30:09.601Z,11.6
2023-04-10T19:33:09.778Z,11.6
2023-04-10T19:36:12.520Z,11.5
2023-04-10T19:39:09.526Z,11.5
2023-04-10T19:42:09.437Z,11.6
2023-04-10T19:45:09.441Z,11.6
2023-04-10T19:48:10.180Z,11.6
2023-04-10T19:51:10.040Z,11.6
2023-04-10T19:54:09.503Z,11.6
2023-04-10T19:57:09.497Z,11.6
2023-04-10T20:00:09.583Z,11.7
2023-04-10T20:03:11.036Z,11.8
2023-04-10T20:06:09.686Z,11.9
2023-04-10T20:09:09.568Z,11.9
2023-04-10T20:12:09.537Z,11.9
2023-04-10T20:15:09.543Z,11.9
2023-04-10T20:18:09.956Z,11.8
2023-04-10T20:21:09.425Z,11.8
2023-04-10T20:24:09.489Z,11.9
2023-04-10T20:27:09.403Z,11.9
2023-04-10T20:30:09.617Z,11.9
2023-04-10T20:33:09.678Z,11.9
2023-04-10T20:36:09.745Z,11.8
2023-04-10T20:39:09.421Z,11.9
2023-04-10T20:42:09.513Z,11.9
2023-04-10T20:45:09.617Z,12
2023-04-10T20:48:09.807Z,11.9
2023-04-10T20:51:09.497Z,11.7
2023-04-10T20:54:09.402Z,11.6
2023-04-10T20:57:09.448Z,11.5
2023-04-10T21:00:09.612Z,11.5
2023-04-10T21:03:10.654Z,11.5
2023-04-10T21:06:09.615Z,11.4
2023-04-10T21:09:09.581Z,11.4
2023-04-10T21:12:09.532Z,11.5
2023-04-10T21:15:09.576Z,11.6
2023-04-10T21:18:09.581Z,11.7
2023-04-10T21:21:09.546Z,11.8
2023-04-10T21:24:09.502Z,11.9
2023-04-10T21:27:09.631Z,12
2023-04-10T21:30:09.560Z,12
2023-04-10T21:33:09.740Z,12
2023-04-10T21:36:09.792Z,12.1
2023-04-10T21:39:09.611Z,12.1
2023-04-10T21:42:09.579Z,12.2
2023-04-10T21:45:09.592Z,12.3
2023-04-10T21:48:09.991Z,12.5
2023-04-10T21:51:09.458Z,12.8
2023-04-10T21:54:09.495Z,12.9
2023-04-10T21:57:09.590Z,13.1
2023-04-10T22:00:09.932Z,13.3
2023-04-10T22:03:11.026Z,13.3
2023-04-10T22:06:09.453Z,13.3
2023-04-10T22:09:09.505Z,13.2
2023-04-10T22:12:09.443Z,13.3
2023-04-10T22:15:09.578Z,13.4
2023-04-10T22:18:09.740Z,13.5
2023-04-10T22:21:09.462Z,13.6
2023-04-10T22:24:09.457Z,13.4
2023-04-10T22:27:09.512Z,13.4
2023-04-10T22:30:13.511Z,13.4
2023-04-10T22:33:09.807Z,13.3
2023-04-10T22:36:09.882Z,13.2
2023-04-10T22:39:09.420Z,13.2
2023-04-10T22:42:09.449Z,13.3
2023-04-10T22:45:09.496Z,13.4
2023-04-10T22:48:09.733Z,13.3
2023-04-10T22:51:09.419Z,13.1
2023-04-10T22:54:09.539Z,13.1
2023-04-10T22:57:09.473Z,13.1
2023-04-10T23:00:09.958Z,12.9
2023-04-10T23:03:10.612Z,12.8
2023-04-10T23:06:09.453Z,12.6
2023-04-10T23:09:09.540Z,12.4
2023-04-10T23:12:09.482Z,12.2
2023-04-10T23:15:09.479Z,12.1
2023-04-10T23:18:09.849Z,11.9
2023-04-10T23:21:09.381Z,11.7
2023-04-10T23:24:09.507Z,11.8
2023-04-10T23:27:09.485Z,11.8
2023-04-10T23:30:09.525Z,11.8
2023-04-10T23:33:09.772Z,11.8
2023-04-10T23:36:09.657Z,11.8
2023-04-10T23:39:09.510Z,11.8
2023-04-10T23:42:09.444Z,11.8
2023-04-10T23:45:09.511Z,11.7
2023-04-10T23:48:09.698Z,11.4
2023-04-10T23:51:09.456Z,11.1
2023-04-10T23:54:09.499Z,10.7
2023-04-10T23:57:09.514Z,10.4
